Corpus Christi, TX

3:05 PM CST on February 06, 2016 (GMT -0600)
Corpus Christi Naval Air Station-Truax | | Change Station
CLOSE
Current Station
Airport
Location: Corpus Christi NAS,
Elevation: 20 ft
Nearby Weather Stations
Active Advisory: Fire Weather Warning

Elev 20 ft 27.69 °N, 97.29 °W | Updated 9 minutes ago

Clear
Clear
69 °F
Feels Like 69 °F
N
23
Wind Variable Wind from NNW

Today
High -- | Low -- °F
--% Chance of Precip.
Yesterday
High -- | Low -- °F
Precip. -- in
Pressure 30.32 in
Visibility 10.0 miles
Clouds Clear
Dew Point 31 °F
Humidity 24%
Rainfall 0.00 in
Snow Depth Not available.
7:13 AM 6:13 PM
Waning Crescent, 4% visible
METAR KNGP 062056Z AUTO 33020KT 10SM CLR 21/M01 A3032 RMK AO2 PK WND 32026/2033 SLP268 T02061006 56022
Pressure 30.32 in
Visibility 10.0 miles
Clouds Clear
Dew Point 31 °F
Humidity 24%
Rainfall 0.00 in
Snow Depth Not available.
7:13 AM 6:13 PM
Waning Crescent, 4% visible
METAR KNGP 062056Z AUTO 33020KT 10SM CLR 21/M01 A3032 RMK AO2 PK WND 32026/2033 SLP268 T02061006 56022

10-Day Weather Forecast

Almanac

Astronomy

Feb. 06, 2016 Rise Set
Actual Time
Civil Twilight
Nautical Twilight
Astronomical Twilight
Moon
Length of Visible Light
Length of Day
Tomorrow will be .
, % of the Moon is Illuminated

Today's Extremes

State Highs State Lows

Community

WunderPhotos

Upload Photos

1,891,050 photos uploaded!

WunderBlog® & News

Nearby

Air Quality

  Air Quality AQ Index Pollutant
Not available.

Snow Depth

Station Depth Elevation

Earthquake Activity

City Distance Mag. Time & Date
Minimum magnitude displayed is 2.5.

Coastal Water Temperatures

Place Temperature

Stations

Nearby Weather Stations

Station Location Temp. Windchill Dew Point Humidity Wind Precip. Elev Updated Type
                   

Watches & Warnings

Fire Weather Warning
Issued: 4:17 AM CST Feb. 6, 2016 – National Weather Service

... Red flag warning remains in effect from 11 am this morning to
5 PM CST this afternoon for gusty northwest winds and low humidity
for all of south Texas...

* affected area... Aransas... Bee... Calhoun... Duval... Goliad...
Jim Wells... Kleberg... La Salle... Live Oak... McMullen...
Nueces... San Patricio... Refugio... Victoria and Webb counties.

* Timing... late morning through late afternoon.

* Wind... northwest winds 15 to 25 mph with gusts to 35 mph.

* Humidity... lowest afternoon humidity will range from 15 percent
along the Rio Grande to around 35 percent along the northeastern
coastal Bend.

* Impacts... fires will likely spread rapidly. Substantial
resistance to control efforts will occur.

Precautionary/preparedness actions...

Residents are urged to exercise care with respect to all outdoor
activities that could inadvertently cause wildfires. Report
wildfires quickly to the nearest Fire Department or law
enforcement office.



Gw